createdAt,value
2022-08-08T00:02:03.542Z,99043.13
2022-08-08T00:05:17.471Z,99040.25
2022-08-08T00:07:56.507Z,99044.41
2022-08-08T00:10:57.026Z,99042.13
2022-08-08T00:14:15.273Z,99041.59
2022-08-08T00:16:25.053Z,99049.06
2022-08-08T00:19:20.989Z,99047.56
2022-08-08T00:22:01.612Z,99048.06
2022-08-08T00:24:41.195Z,99050.09
2022-08-08T00:27:11.844Z,99055.59
2022-08-08T00:29:46.938Z,99051.69
2022-08-08T00:32:35.055Z,99050.00
2022-08-08T00:35:37.257Z,99054.50
2022-08-08T00:38:31.607Z,99056.22
2022-08-08T00:41:54.568Z,99047.97
2022-08-08T00:45:21.396Z,99053.75
2022-08-08T00:48:33.646Z,99052.88
2022-08-08T00:51:22.507Z,99050.59
2022-08-08T00:54:28.633Z,99060.34
2022-08-08T00:57:23.318Z,99058.66
2022-08-08T01:00:06.543Z,99069.44
2022-08-08T01:03:58.285Z,99067.88
2022-08-08T01:06:31.786Z,99068.16
2022-08-08T01:09:35.473Z,99062.97
2022-08-08T01:12:17.638Z,99060.69
2022-08-08T01:15:10.385Z,99062.53
2022-08-08T01:18:25.248Z,99053.69
2022-08-08T01:22:03.799Z,99062.69
2022-08-08T01:24:50.825Z,99064.59
2022-08-08T01:27:59.547Z,99062.09
2022-08-08T01:30:36.263Z,99066.69
2022-08-08T01:33:42.816Z,99065.84
2022-08-08T01:36:32.886Z,99066.91
2022-08-08T01:39:23.644Z,99070.53
2022-08-08T01:42:35.769Z,99067.06
2022-08-08T01:45:13.865Z,99060.38
2022-08-08T01:48:27.881Z,99061.34
2022-08-08T01:51:31.766Z,99058.75
2022-08-08T01:55:19.690Z,99064.84
2022-08-08T01:57:17.991Z,99055.03
2022-08-08T02:00:02.384Z,99059.00
2022-08-08T02:02:46.322Z,99043.53
2022-08-08T02:05:58.812Z,99052.41
2022-08-08T02:08:47.219Z,99048.22
2022-08-08T02:11:52.968Z,99057.88
2022-08-08T02:14:50.042Z,99054.56
2022-08-08T02:17:42.588Z,99044.25
2022-08-08T02:21:02.290Z,99053.13
2022-08-08T02:23:35.255Z,99051.53
2022-08-08T02:26:15.807Z,99051.50
2022-08-08T02:29:19.181Z,99051.91
2022-08-08T02:32:05.418Z,99053.00
2022-08-08T02:35:10.689Z,99056.59
2022-08-08T02:38:00.181Z,99060.97
2022-08-08T02:40:40.141Z,99053.59
2022-08-08T02:44:42.951Z,99058.78
2022-08-08T02:46:51.506Z,99058.78
2022-08-08T02:49:51.378Z,99057.91
2022-08-08T02:52:51.290Z,99060.63
2022-08-08T02:55:19.882Z,99067.38
2022-08-08T02:58:26.565Z,99064.72
2022-08-08T03:01:24.232Z,99068.19
2022-08-08T03:05:05.091Z,99069.94
2022-08-08T03:07:58.351Z,99068.06
2022-08-08T03:10:33.535Z,99068.94
2022-08-08T03:15:59.703Z,99075.34
2022-08-08T03:17:00.785Z,99073.91
2022-08-08T03:19:27.802Z,99075.47
2022-08-08T03:21:58.298Z,99071.22
2022-08-08T03:24:25.973Z,99064.22
2022-08-08T03:27:12.342Z,99074.00
2022-08-08T03:29:56.497Z,99068.81
2022-08-08T03:32:42.483Z,99069.00
2022-08-08T03:35:25.546Z,99069.28
2022-08-08T03:38:56.271Z,99069.31
2022-08-08T03:40:52.275Z,99071.03
2022-08-08T03:43:20.122Z,99081.63
2022-08-08T03:46:05.443Z,99072.13
2022-08-08T03:49:09.819Z,99074.94
2022-08-08T03:51:40.189Z,99092.50
2022-08-08T03:54:10.033Z,99083.72
2022-08-08T03:56:42.449Z,99083.50
2022-08-08T03:59:22.788Z,99088.88
2022-08-08T04:02:23.019Z,99084.59
2022-08-08T04:04:37.766Z,99094.34
2022-08-08T04:07:04.505Z,99099.50
2022-08-08T04:09:59.318Z,99101.16
2022-08-08T04:12:17.579Z,99099.38
2022-08-08T04:14:46.354Z,99108.03
2022-08-08T04:17:46.726Z,99106.91
2022-08-08T04:20:05.922Z,99101.72
2022-08-08T04:22:35.179Z,99103.59
2022-08-08T04:25:02.322Z,99108.16
2022-08-08T04:28:02.799Z,99119.44
2022-08-08T04:30:18.341Z,99123.66
2022-08-08T04:32:47.979Z,99116.66
2022-08-08T04:35:16.416Z,99112.09
2022-08-08T04:37:42.922Z,99118.06
2022-08-08T04:40:12.546Z,99121.34
2022-08-08T04:42:55.916Z,99119.28
2022-08-08T04:45:26.480Z,99111.84
2022-08-08T04:47:54.574Z,99117.72
2022-08-08T04:50:25.519Z,99117.41
2022-08-08T04:53:00.746Z,99124.94
2022-08-08T04:55:37.636Z,99122.06
2022-08-08T04:58:17.588Z,99126.16
2022-08-08T05:00:44.457Z,99129.22
2022-08-08T05:03:19.014Z,99135.84
2022-08-08T05:06:01.315Z,99136.09
2022-08-08T05:08:40.268Z,99130.78
2022-08-08T05:11:08.019Z,99133.44
2022-08-08T05:13:34.603Z,99132.59
2022-08-08T05:16:54.720Z,99132.47
2022-08-08T05:18:53.830Z,99137.53
2022-08-08T05:21:20.621Z,99129.88
2022-08-08T05:23:49.687Z,99131.66
2022-08-08T05:26:31.011Z,99143.72
2022-08-08T05:29:06.156Z,99126.59
2022-08-08T05:32:04.139Z,99131.34
2022-08-08T05:34:40.822Z,99138.16
2022-08-08T05:37:17.051Z,99132.56
2022-08-08T05:39:49.956Z,99137.78
2022-08-08T05:42:19.398Z,99141.09
2022-08-08T05:44:49.018Z,99142.38
2022-08-08T05:47:21.410Z,99149.91
2022-08-08T05:49:53.974Z,99148.47
2022-08-08T05:52:31.694Z,99152.38
2022-08-08T05:55:03.190Z,99149.84
2022-08-08T05:58:04.366Z,99148.41
2022-08-08T06:00:25.965Z,99155.22
2022-08-08T06:03:24.811Z,99155.31
2022-08-08T06:06:05.242Z,99157.53
2022-08-08T06:08:53.198Z,99153.69
2022-08-08T06:11:22.495Z,99148.63
2022-08-08T06:13:55.011Z,99152.66
2022-08-08T06:16:27.591Z,99159.31
2022-08-08T06:19:01.920Z,99171.06
2022-08-08T06:21:48.457Z,99165.78
2022-08-08T06:24:23.277Z,99159.09
2022-08-08T06:27:04.150Z,99163.41
2022-08-08T06:29:59.422Z,99165.88
2022-08-08T06:32:31.234Z,99164.66
2022-08-08T06:36:04.645Z,99170.06
2022-08-08T06:37:56.145Z,99167.03
2022-08-08T06:40:26.994Z,99169.91
2022-08-08T06:43:04.771Z,99172.28
2022-08-08T06:45:36.507Z,99169.25
2022-08-08T06:48:05.289Z,99167.44
2022-08-08T06:50:38.682Z,99178.47
2022-08-08T06:53:13.833Z,99178.53
2022-08-08T06:55:47.061Z,99180.03
2022-08-08T06:58:30.968Z,99180.91
2022-08-08T07:01:01.625Z,99173.88
2022-08-08T07:04:36.964Z,99171.41
2022-08-08T07:06:46.590Z,99185.78
2022-08-08T07:09:20.943Z,99176.03
2022-08-08T07:11:53.632Z,99181.19
2022-08-08T07:14:39.331Z,99183.28
2022-08-08T07:17:19.870Z,99182.91
2022-08-08T07:20:03.089Z,99189.13
2022-08-08T07:22:52.250Z,99182.59
2022-08-08T07:25:21.810Z,99182.72
2022-08-08T07:28:13.357Z,99191.66
2022-08-08T07:30:46.680Z,99187.47
2022-08-08T07:33:17.604Z,99185.34
2022-08-08T07:35:47.370Z,99182.66
2022-08-08T07:38:21.011Z,99183.63
2022-08-08T07:40:58.943Z,99190.25
2022-08-08T07:43:35.240Z,99187.59
2022-08-08T07:46:17.946Z,99194.81
2022-08-08T07:48:50.806Z,99189.81
2022-08-08T07:51:23.864Z,99189.03
2022-08-08T07:54:24.167Z,99196.19
2022-08-08T07:57:09.033Z,99193.16
2022-08-08T07:59:51.241Z,99205.97
2022-08-08T08:02:36.189Z,99196.19
2022-08-08T08:05:15.509Z,99202.06
2022-08-08T08:07:45.987Z,99197.44
2022-08-08T08:10:30.542Z,99204.53
2022-08-08T08:13:42.208Z,99191.25
2022-08-08T08:16:32.246Z,99187.06
2022-08-08T08:19:07.992Z,99199.22
2022-08-08T08:21:53.483Z,99194.94
2022-08-08T08:24:30.403Z,99195.56
2022-08-08T08:26:58.586Z,99196.78
2022-08-08T08:29:27.760Z,99191.81
2022-08-08T08:31:57.831Z,99191.81
2022-08-08T08:34:31.909Z,99195.47
2022-08-08T08:37:00.544Z,99194.50
2022-08-08T08:39:59.901Z,99191.72
2022-08-08T08:42:29.473Z,99191.91
2022-08-08T08:45:10.175Z,99191.66
2022-08-08T08:47:52.910Z,99193.22
2022-08-08T08:50:32.558Z,99194.78
2022-08-08T08:53:54.576Z,99191.78
2022-08-08T08:56:01.455Z,99192.38
2022-08-08T08:58:37.821Z,99188.34
2022-08-08T09:01:09.753Z,99189.91
2022-08-08T09:03:46.854Z,99193.38
2022-08-08T09:06:33.420Z,99193.38
2022-08-08T09:09:39.628Z,99195.63
2022-08-08T09:12:20.042Z,99189.25
2022-08-08T09:14:47.660Z,99191.94
2022-08-08T09:17:28.705Z,99191.47
2022-08-08T09:22:04.773Z,99188.81
2022-08-08T09:22:49.001Z,99185.28
2022-08-08T09:25:19.670Z,99189.88
2022-08-08T09:27:57.515Z,99185.44
2022-08-08T09:30:26.753Z,99182.38
2022-08-08T09:33:11.953Z,99182.06
2022-08-08T09:35:50.107Z,99180.06
2022-08-08T09:39:01.150Z,99178.94
2022-08-08T09:42:14.222Z,99177.13
2022-08-08T09:45:08.167Z,99174.19
2022-08-08T09:48:10.007Z,99171.16
2022-08-08T09:50:36.926Z,99174.44
2022-08-08T09:53:31.905Z,99170.81
2022-08-08T09:56:06.891Z,99175.22
2022-08-08T09:58:45.077Z,99167.28
2022-08-08T10:01:14.371Z,99170.44
2022-08-08T10:03:42.637Z,99173.81
2022-08-08T10:06:17.906Z,99169.34
2022-08-08T10:08:49.430Z,99172.91
2022-08-08T10:12:27.400Z,99160.97
2022-08-08T10:14:05.918Z,99169.78
2022-08-08T10:16:43.418Z,99156.53
2022-08-08T10:19:17.652Z,99153.16
2022-08-08T10:21:51.044Z,99153.81
2022-08-08T10:24:28.739Z,99153.06
2022-08-08T10:27:01.743Z,99160.84
2022-08-08T10:29:58.495Z,99152.28
2022-08-08T10:35:10.492Z,99147.78
2022-08-08T10:37:38.591Z,99143.81
2022-08-08T10:40:16.057Z,99147.16
2022-08-08T10:42:43.650Z,99138.13
2022-08-08T10:45:12.026Z,99143.53
2022-08-08T10:47:48.586Z,99150.28
2022-08-08T10:50:23.591Z,99137.00
2022-08-08T10:52:50.579Z,99137.44
2022-08-08T10:55:40.757Z,99136.50
2022-08-08T10:58:08.692Z,99128.16
2022-08-08T11:00:48.500Z,99130.94
2022-08-08T11:03:19.217Z,99130.09
2022-08-08T11:06:06.437Z,99127.50
2022-08-08T11:08:42.844Z,99128.44
2022-08-08T11:11:31.683Z,99128.75
2022-08-08T11:14:02.678Z,99119.66
2022-08-08T11:16:34.398Z,99122.47
2022-08-08T11:19:03.986Z,99115.16
2022-08-08T11:21:37.681Z,99118.16
2022-08-08T11:24:06.133Z,99119.63
2022-08-08T11:26:38.411Z,99118.50
2022-08-08T11:29:23.689Z,99115.59
2022-08-08T11:32:10.823Z,99111.84
2022-08-08T11:35:07.415Z,99110.41
2022-08-08T11:38:35.120Z,99107.09
2022-08-08T11:40:22.582Z,99118.41
2022-08-08T11:42:54.739Z,99118.59
2022-08-08T11:45:22.912Z,99119.59
2022-08-08T11:48:04.379Z,99110.16
2022-08-08T11:50:33.952Z,99110.56
2022-08-08T11:53:06.043Z,99111.47
2022-08-08T11:55:36.414Z,99115.53
2022-08-08T11:58:15.839Z,99107.38
2022-08-08T12:00:45.339Z,99112.13
2022-08-08T12:03:22.858Z,99106.88
2022-08-08T12:05:51.376Z,99112.63
2022-08-08T12:08:30.627Z,99114.06
2022-08-08T12:11:02.373Z,99107.16
2022-08-08T12:13:38.107Z,99100.06
2022-08-08T12:16:28.240Z,99101.28
2022-08-08T12:19:02.344Z,99107.03
2022-08-08T12:21:59.196Z,99112.34
2022-08-08T12:24:28.116Z,99102.34
2022-08-08T12:26:57.061Z,99099.19
2022-08-08T12:29:42.214Z,99107.09
2022-08-08T12:32:19.510Z,99104.94
2022-08-08T12:35:13.444Z,99107.28
2022-08-08T12:38:01.082Z,99092.44
2022-08-08T12:40:56.831Z,99094.91
2022-08-08T12:43:48.021Z,99091.53
2022-08-08T12:46:25.288Z,99082.91
2022-08-08T12:49:25.729Z,99091.50
2022-08-08T12:51:58.706Z,99078.94
2022-08-08T12:54:38.292Z,99087.56
2022-08-08T12:57:26.076Z,99087.81
2022-08-08T13:00:04.809Z,99082.00
2022-08-08T13:02:42.046Z,99076.22
2022-08-08T13:05:26.222Z,99074.13
2022-08-08T13:08:18.357Z,99060.84
2022-08-08T13:10:58.053Z,99077.41
2022-08-08T13:13:34.700Z,99074.84
2022-08-08T13:16:25.692Z,99073.38
2022-08-08T13:18:58.236Z,99080.16
2022-08-08T13:21:36.514Z,99068.53
2022-08-08T13:24:18.774Z,99074.09
2022-08-08T13:27:04.308Z,99073.66
2022-08-08T13:29:38.027Z,99087.94
2022-08-08T13:32:07.652Z,99075.38
2022-08-08T13:34:39.962Z,99071.63
2022-08-08T13:37:10.996Z,99073.75
2022-08-08T13:39:51.092Z,99073.97
2022-08-08T13:42:19.570Z,99067.28
2022-08-08T13:44:54.880Z,99074.03
2022-08-08T13:47:23.091Z,99068.94
2022-08-08T13:50:34.686Z,99069.34
2022-08-08T13:52:51.139Z,99068.56
2022-08-08T13:55:28.934Z,99063.94
2022-08-08T13:58:08.283Z,99058.59
2022-08-08T14:00:42.435Z,99069.84
2022-08-08T14:03:53.759Z,99066.19
2022-08-08T14:06:09.076Z,99067.66
2022-08-08T14:08:57.424Z,99062.06
2022-08-08T14:11:27.952Z,99061.28
2022-08-08T14:14:02.380Z,99068.09
2022-08-08T14:16:31.645Z,99059.25
2022-08-08T14:19:10.549Z,99060.66
2022-08-08T14:21:52.042Z,99050.94
2022-08-08T14:24:33.877Z,99058.78
2022-08-08T14:27:01.714Z,99051.19
2022-08-08T14:29:30.576Z,99054.19
2022-08-08T14:32:08.817Z,99047.53
2022-08-08T14:34:42.830Z,99046.38
2022-08-08T14:37:10.141Z,99052.56
2022-08-08T14:39:49.391Z,99050.59
2022-08-08T14:42:24.634Z,99042.91
2022-08-08T14:44:55.967Z,99047.75
2022-08-08T14:47:23.857Z,99050.34
2022-08-08T14:50:06.631Z,99056.38
2022-08-08T14:52:46.669Z,99054.63
2022-08-08T14:55:14.099Z,99054.06
2022-08-08T14:58:02.580Z,99056.94
2022-08-08T15:00:31.782Z,99060.91
2022-08-08T15:03:14.440Z,99054.91
2022-08-08T15:05:53.423Z,99054.81
2022-08-08T15:08:33.501Z,99052.19
2022-08-08T15:11:04.245Z,99046.00
2022-08-08T15:13:39.920Z,99052.84
2022-08-08T15:16:12.106Z,99055.63
2022-08-08T15:18:50.164Z,99051.72
2022-08-08T15:21:18.733Z,99054.38
2022-08-08T15:23:51.209Z,99046.94
2022-08-08T15:26:25.638Z,99057.09
2022-08-08T15:28:54.010Z,99051.19
2022-08-08T15:31:55.491Z,99049.78
2022-08-08T15:34:08.570Z,99045.75
2022-08-08T15:36:47.465Z,99055.13
2022-08-08T15:39:14.665Z,99053.66
2022-08-08T15:41:44.108Z,99058.53
2022-08-08T15:44:13.531Z,99060.59
2022-08-08T15:46:40.458Z,99064.50
2022-08-08T15:49:12.365Z,99058.72
2022-08-08T15:51:38.824Z,99045.94
2022-08-08T15:54:06.557Z,99051.13
2022-08-08T15:56:45.845Z,99049.00
2022-08-08T15:59:13.459Z,99042.75
2022-08-08T16:01:40.421Z,99045.72
2022-08-08T16:04:21.702Z,99045.94
2022-08-08T16:06:56.233Z,99046.72
2022-08-08T16:13:10.006Z,99043.19
2022-08-08T16:13:14.030Z,99051.84
2022-08-08T16:14:57.749Z,99047.16
2022-08-08T16:17:38.717Z,99045.00
2022-08-08T16:20:13.539Z,99046.59
2022-08-08T16:22:41.717Z,99042.31
2022-08-08T16:25:09.493Z,99043.56
2022-08-08T16:27:36.932Z,99042.69
2022-08-08T16:30:13.108Z,99039.66
2022-08-08T16:32:42.703Z,99041.38
2022-08-08T16:35:09.633Z,99044.34
2022-08-08T16:37:36.193Z,99051.78
2022-08-08T16:40:04.111Z,99033.63
2022-08-08T16:42:31.092Z,99041.66
2022-08-08T16:44:59.527Z,99044.06
2022-08-08T16:47:41.445Z,99042.13
2022-08-08T16:50:14.683Z,99044.81
2022-08-08T16:55:04.076Z,99038.72
2022-08-08T16:55:55.347Z,99043.88
2022-08-08T16:58:20.506Z,99037.50
2022-08-08T17:00:48.621Z,99048.25
2022-08-08T17:03:25.335Z,99048.63
2022-08-08T17:06:04.809Z,99045.44
2022-08-08T17:08:31.750Z,99044.59
2022-08-08T17:11:10.383Z,99042.75
2022-08-08T17:13:41.273Z,99047.56
2022-08-08T17:16:17.191Z,99051.72
2022-08-08T17:18:45.385Z,99054.53
2022-08-08T17:21:12.755Z,99052.22
2022-08-08T17:23:59.992Z,99065.72
2022-08-08T17:26:29.002Z,99064.72
2022-08-08T17:28:56.391Z,99061.38
2022-08-08T17:31:45.514Z,99058.03
2022-08-08T17:34:52.981Z,99069.66
2022-08-08T17:37:00.800Z,99061.25
2022-08-08T17:40:04.374Z,99075.69
2022-08-08T17:42:18.369Z,99064.75
2022-08-08T17:44:46.143Z,99073.22
2022-08-08T17:47:16.336Z,99071.25
2022-08-08T17:49:52.729Z,99076.50
2022-08-08T17:52:24.006Z,99078.22
2022-08-08T17:54:51.921Z,99078.06
2022-08-08T17:57:23.412Z,99081.59
2022-08-08T17:59:51.857Z,99084.59
2022-08-08T18:02:28.949Z,99089.56
2022-08-08T18:04:58.533Z,99086.16
2022-08-08T18:08:01.018Z,99091.38
2022-08-08T18:10:14.667Z,99092.34
2022-08-08T18:12:42.949Z,99086.78
2022-08-08T18:15:13.048Z,99095.09
2022-08-08T18:18:10.111Z,99099.88
2022-08-08T18:20:44.140Z,99101.63
2022-08-08T18:23:14.859Z,99111.75
2022-08-08T18:25:42.798Z,99113.09
2022-08-08T18:28:13.094Z,99117.19
2022-08-08T18:30:41.786Z,99116.41
2022-08-08T18:33:36.798Z,99117.63
2022-08-08T18:36:03.174Z,99116.88
2022-08-08T18:38:30.777Z,99123.47
2022-08-08T18:40:58.933Z,99123.91
2022-08-08T18:43:42.573Z,99125.09
2022-08-08T18:46:55.241Z,99121.66
2022-08-08T18:48:56.974Z,99133.22
2022-08-08T18:51:48.293Z,99133.13
2022-08-08T18:54:21.997Z,99142.56
2022-08-08T18:56:50.038Z,99150.28
2022-08-08T18:59:17.082Z,99146.59
2022-08-08T19:02:26.167Z,99151.31
2022-08-08T19:04:30.854Z,99154.63
2022-08-08T19:06:57.413Z,99154.47
2022-08-08T19:09:48.310Z,99161.00
2022-08-08T19:12:13.444Z,99163.47
2022-08-08T19:14:40.173Z,99166.00
2022-08-08T19:17:10.750Z,99168.72
2022-08-08T19:19:44.151Z,99175.06
2022-08-08T19:22:11.116Z,99175.31
2022-08-08T19:24:53.656Z,99175.31
2022-08-08T19:27:55.922Z,99175.38
2022-08-08T19:30:24.016Z,99184.41
2022-08-08T19:32:50.868Z,99185.25
2022-08-08T19:35:17.417Z,99181.59
2022-08-08T19:37:55.398Z,99184.09
2022-08-08T19:40:31.051Z,99186.16
2022-08-08T19:42:59.814Z,99185.00
2022-08-08T19:45:58.919Z,99186.94
2022-08-08T19:48:30.624Z,99186.34
2022-08-08T19:51:00.899Z,99189.97
2022-08-08T19:53:54.173Z,99194.72
2022-08-08T19:56:16.467Z,99193.00
2022-08-08T19:58:52.855Z,99193.31
2022-08-08T20:01:25.775Z,99200.44
2022-08-08T20:04:01.649Z,99186.78
2022-08-08T20:06:29.683Z,99189.66
2022-08-08T20:08:56.762Z,99180.69
2022-08-08T20:11:23.724Z,99189.25
2022-08-08T20:14:31.581Z,99189.41
2022-08-08T20:16:40.349Z,99196.31
2022-08-08T20:19:07.152Z,99186.06
2022-08-08T20:21:38.014Z,99195.31
2022-08-08T20:24:07.712Z,99205.06
2022-08-08T20:26:35.557Z,99202.38
2022-08-08T20:29:06.560Z,99209.97
2022-08-08T20:32:08.065Z,99208.59
2022-08-08T20:34:31.341Z,99202.13
2022-08-08T20:37:03.283Z,99200.41
2022-08-08T20:39:39.349Z,99204.81
2022-08-08T20:42:23.746Z,99211.47
2022-08-08T20:44:56.666Z,99212.22
2022-08-08T20:47:36.460Z,99205.00
2022-08-08T20:50:06.157Z,99203.44
2022-08-08T20:52:37.857Z,99207.06
2022-08-08T20:55:07.721Z,99205.34
2022-08-08T20:57:43.922Z,99213.91
2022-08-08T21:00:14.278Z,99213.97
2022-08-08T21:02:42.127Z,99210.78
2022-08-08T21:05:15.095Z,99210.38
2022-08-08T21:08:07.835Z,99202.59
2022-08-08T21:10:31.522Z,99208.59
2022-08-08T21:12:58.029Z,99209.13
2022-08-08T21:16:04.970Z,99206.31
2022-08-08T21:18:11.565Z,99211.91
2022-08-08T21:20:38.485Z,99205.13
2022-08-08T21:23:08.987Z,99202.34
2022-08-08T21:25:36.660Z,99210.94
2022-08-08T21:28:09.311Z,99210.47
2022-08-08T21:30:42.598Z,99202.97
2022-08-08T21:33:11.976Z,99207.53
2022-08-08T21:36:17.235Z,99205.47
2022-08-08T21:38:26.032Z,99206.25
2022-08-08T21:40:55.522Z,99210.28
2022-08-08T21:43:24.756Z,99220.59
2022-08-08T21:48:01.685Z,99210.78
2022-08-08T21:48:44.805Z,99219.22
2022-08-08T21:51:20.279Z,99226.22
2022-08-08T21:54:22.848Z,99230.84
2022-08-08T21:56:52.350Z,99228.81
2022-08-08T21:59:21.175Z,99238.06
2022-08-08T22:01:52.412Z,99232.75
2022-08-08T22:04:24.721Z,99235.63
2022-08-08T22:06:52.431Z,99225.91
2022-08-08T22:09:18.900Z,99236.75
2022-08-08T22:11:58.792Z,99230.63
2022-08-08T22:14:33.765Z,99229.56
2022-08-08T22:17:01.050Z,99227.84
2022-08-08T22:19:29.722Z,99232.91
2022-08-08T22:21:56.775Z,99228.00
2022-08-08T22:24:28.214Z,99231.69
2022-08-08T22:27:02.694Z,99241.84
2022-08-08T22:29:58.917Z,99234.78
2022-08-08T22:32:18.960Z,99228.84
2022-08-08T22:34:50.675Z,99229.09
2022-08-08T22:37:28.226Z,99233.97
2022-08-08T22:40:06.519Z,99228.19
2022-08-08T22:42:34.516Z,99238.94
2022-08-08T22:45:01.891Z,99233.00
2022-08-08T22:47:34.319Z,99236.72
2022-08-08T22:50:09.715Z,99235.41
2022-08-08T22:54:15.776Z,99238.22
2022-08-08T22:55:57.710Z,99238.94
2022-08-08T22:58:28.334Z,99242.16
2022-08-08T23:00:55.922Z,99238.56
2022-08-08T23:03:24.101Z,99228.81
2022-08-08T23:06:01.807Z,99229.66
2022-08-08T23:08:28.465Z,99238.72
2022-08-08T23:11:05.859Z,99242.97
2022-08-08T23:13:42.035Z,99242.56
2022-08-08T23:16:41.906Z,99238.91
2022-08-08T23:19:04.675Z,99249.59
2022-08-08T23:21:35.487Z,99246.38
2022-08-08T23:24:05.055Z,99262.50
2022-08-08T23:26:31.531Z,99260.00
2022-08-08T23:28:57.996Z,99261.66
2022-08-08T23:31:24.492Z,99265.22
2022-08-08T23:34:17.287Z,99274.22
2022-08-08T23:36:38.989Z,99266.97
2022-08-08T23:39:07.537Z,99263.44
2022-08-08T23:41:45.538Z,99262.38
2022-08-08T23:44:14.147Z,99259.06
2022-08-08T23:49:02.737Z,99256.09
2022-08-08T23:49:27.068Z,99258.47
2022-08-08T23:52:06.057Z,99267.22
2022-08-08T23:54:42.664Z,99266.34
2022-08-08T23:57:26.345Z,99265.25
